createdAt,value
2023-02-22T00:00:48.892Z,9.00
2023-02-22T00:03:17.640Z,9.00
2023-02-22T00:05:47.080Z,9.00
2023-02-22T00:08:15.073Z,9.00
2023-02-22T00:10:42.140Z,9.10
2023-02-22T00:13:11.518Z,9.10
2023-02-22T00:15:41.498Z,9.00
2023-02-22T00:18:12.053Z,9.00
2023-02-22T00:20:40.093Z,9.00
2023-02-22T00:23:09.694Z,9.00
2023-02-22T00:25:37.144Z,9.00
2023-02-22T00:28:05.074Z,9.00
2023-02-22T00:30:33.759Z,9.00
2023-02-22T00:33:00.970Z,9.00
2023-02-22T00:35:30.041Z,9.00
2023-02-22T00:37:59.594Z,9.00
2023-02-22T00:40:28.314Z,9.00
2023-02-22T00:42:55.112Z,9.00
2023-02-22T00:45:24.338Z,9.00
2023-02-22T00:47:51.830Z,8.90
2023-02-22T00:50:19.534Z,8.90
2023-02-22T00:52:46.404Z,8.90
2023-02-22T00:55:22.746Z,8.90
2023-02-22T00:57:50.095Z,8.90
2023-02-22T01:00:25.697Z,8.90
2023-02-22T01:02:52.641Z,9.00
2023-02-22T01:05:23.092Z,8.90
2023-02-22T01:07:50.489Z,8.90
2023-02-22T01:10:20.553Z,8.90
2023-02-22T01:12:48.571Z,8.90
2023-02-22T01:15:17.263Z,8.90
2023-02-22T01:17:44.135Z,8.90
2023-02-22T01:20:14.843Z,8.90
2023-02-22T01:22:47.610Z,8.90
2023-02-22T01:25:18.982Z,9.00
2023-02-22T01:27:45.958Z,9.00
2023-02-22T01:30:15.140Z,9.00
2023-02-22T01:32:42.984Z,8.90
2023-02-22T01:35:18.475Z,8.90
2023-02-22T01:37:45.866Z,9.00
2023-02-22T01:40:26.455Z,8.90
2023-02-22T01:42:55.550Z,8.90
2023-02-22T01:45:34.286Z,8.90
2023-02-22T01:48:16.198Z,8.90
2023-02-22T01:51:00.097Z,8.90
2023-02-22T01:53:36.071Z,8.90
2023-02-22T01:56:04.564Z,8.90
2023-02-22T01:58:34.832Z,8.90
2023-02-22T02:01:01.821Z,8.90
2023-02-22T02:03:35.916Z,8.90
2023-02-22T02:06:06.448Z,8.90
2023-02-22T02:09:10.796Z,8.90
2023-02-22T02:11:40.465Z,8.90
2023-02-22T02:14:08.819Z,8.90
2023-02-22T02:16:40.996Z,8.90
2023-02-22T02:19:17.079Z,8.90
2023-02-22T02:22:19.200Z,8.90
2023-02-22T02:25:10.888Z,8.90
2023-02-22T02:27:55.858Z,8.90
2023-02-22T02:30:31.765Z,8.90
2023-02-22T02:33:06.567Z,8.90
2023-02-22T02:35:41.238Z,8.90
2023-02-22T02:38:29.049Z,8.80
2023-02-22T02:41:15.396Z,8.80
2023-02-22T02:43:47.262Z,8.80
2023-02-22T02:46:26.537Z,8.80
2023-02-22T02:49:03.799Z,8.90
2023-02-22T02:51:50.156Z,8.90
2023-02-22T02:54:17.927Z,8.90
2023-02-22T02:56:46.475Z,8.90
2023-02-22T02:59:39.870Z,8.90
2023-02-22T03:02:24.652Z,8.90
2023-02-22T03:05:31.840Z,8.90
2023-02-22T03:08:07.817Z,8.90
2023-02-22T03:10:56.947Z,8.90
2023-02-22T03:13:45.558Z,8.90
2023-02-22T03:16:32.381Z,8.80
2023-02-22T03:19:23.485Z,8.80
2023-02-22T03:21:53.380Z,8.80
2023-02-22T03:24:28.112Z,8.80
2023-02-22T03:27:09.951Z,8.80
2023-02-22T03:29:42.768Z,8.80
2023-02-22T03:32:16.127Z,8.80
2023-02-22T03:34:47.936Z,8.80
2023-02-22T03:37:19.356Z,8.80
2023-02-22T03:39:47.975Z,8.80
2023-02-22T03:42:37.643Z,8.70
2023-02-22T03:45:07.016Z,8.70
2023-02-22T03:47:51.314Z,8.70
2023-02-22T03:50:22.678Z,8.80
2023-02-22T03:52:49.653Z,8.80
2023-02-22T03:55:17.723Z,8.80
2023-02-22T03:57:51.823Z,8.70
2023-02-22T04:00:25.326Z,8.70
2023-02-22T04:02:52.278Z,8.70
2023-02-22T04:05:19.581Z,8.70
2023-02-22T04:07:46.450Z,8.60
2023-02-22T04:10:15.352Z,8.60
2023-02-22T04:12:42.210Z,8.60
2023-02-22T04:15:11.850Z,8.60
2023-02-22T04:17:38.661Z,8.50
2023-02-22T04:20:07.068Z,8.50
2023-02-22T04:22:34.046Z,8.50
2023-02-22T04:25:00.865Z,8.50
2023-02-22T04:27:27.737Z,8.40
2023-02-22T04:29:54.605Z,8.50
2023-02-22T04:32:21.514Z,8.40
2023-02-22T04:34:48.431Z,8.50
2023-02-22T04:37:15.442Z,8.50
2023-02-22T04:39:42.413Z,8.50
2023-02-22T04:42:09.275Z,8.40
2023-02-22T04:44:36.076Z,8.40
2023-02-22T04:47:02.931Z,8.40
2023-02-22T04:49:29.774Z,8.40
2023-02-22T04:51:56.634Z,8.40
2023-02-22T04:54:23.548Z,8.40
2023-02-22T04:56:50.480Z,8.40
2023-02-22T04:59:17.483Z,8.40
2023-02-22T05:01:44.396Z,8.40
2023-02-22T05:04:11.308Z,8.40
2023-02-22T05:06:38.183Z,8.40
2023-02-22T05:09:05.057Z,8.40
2023-02-22T05:11:31.987Z,8.40
2023-02-22T05:13:58.844Z,8.30
2023-02-22T05:16:26.457Z,8.30
2023-02-22T05:18:53.461Z,8.30
2023-02-22T05:21:20.362Z,8.30
2023-02-22T05:23:47.323Z,8.20
2023-02-22T05:26:14.186Z,8.20
2023-02-22T05:28:41.054Z,8.10
2023-02-22T05:31:09.127Z,8.00
2023-02-22T05:33:36.478Z,8.00
2023-02-22T05:36:03.556Z,7.90
2023-02-22T05:38:30.384Z,7.90
2023-02-22T05:40:57.154Z,7.80
2023-02-22T05:43:24.029Z,7.70
2023-02-22T05:45:50.983Z,7.90
2023-02-22T05:48:17.824Z,7.90
2023-02-22T05:50:44.680Z,8.00
2023-02-22T05:53:11.536Z,8.00
2023-02-22T05:55:38.351Z,8.00
2023-02-22T05:58:05.911Z,8.00
2023-02-22T06:00:32.960Z,7.90
2023-02-22T06:03:03.322Z,7.90
2023-02-22T06:05:30.696Z,7.90
2023-02-22T06:07:58.493Z,7.80
2023-02-22T06:10:25.994Z,7.80
2023-02-22T06:12:53.635Z,7.70
2023-02-22T06:15:22.560Z,7.70
2023-02-22T06:17:50.087Z,7.70
2023-02-22T06:20:19.382Z,7.70
2023-02-22T06:22:54.683Z,7.60
2023-02-22T06:25:24.501Z,7.60
2023-02-22T06:27:51.650Z,7.70
2023-02-22T06:30:22.667Z,7.70
2023-02-22T06:32:49.868Z,7.80
2023-02-22T06:35:17.469Z,7.80
2023-02-22T06:37:44.474Z,7.80
2023-02-22T06:40:11.646Z,7.70
2023-02-22T06:42:39.399Z,7.70
2023-02-22T06:45:07.463Z,7.80
2023-02-22T06:47:39.344Z,7.70
2023-02-22T06:50:06.622Z,7.80
2023-02-22T06:52:33.553Z,7.80
2023-02-22T06:55:00.687Z,7.80
2023-02-22T06:57:27.525Z,7.90
2023-02-22T06:59:54.356Z,7.90
2023-02-22T07:02:21.182Z,7.90
2023-02-22T07:04:48.031Z,8.00
2023-02-22T07:07:14.895Z,8.10
2023-02-22T07:09:41.951Z,8.10
2023-02-22T07:12:09.277Z,8.10
2023-02-22T07:14:36.174Z,8.20
2023-02-22T07:17:03.419Z,8.20
2023-02-22T07:19:30.311Z,8.20
2023-02-22T07:21:59.358Z,8.20
2023-02-22T07:24:28.464Z,8.20
2023-02-22T07:26:55.516Z,8.20
2023-02-22T07:29:22.669Z,8.20
2023-02-22T07:31:49.728Z,8.20
2023-02-22T07:34:16.701Z,8.10
2023-02-22T07:36:43.682Z,8.20
2023-02-22T07:39:11.188Z,8.40
2023-02-22T07:41:38.065Z,8.30
2023-02-22T07:44:05.201Z,8.30
2023-02-22T07:46:32.087Z,8.30
2023-02-22T07:48:58.959Z,8.40
2023-02-22T07:51:27.018Z,8.40
2023-02-22T07:53:53.920Z,8.40
2023-02-22T07:56:20.772Z,8.40
2023-02-22T07:58:47.699Z,8.40
2023-02-22T08:01:14.657Z,8.40
2023-02-22T08:03:42.543Z,8.40
2023-02-22T08:06:10.945Z,8.50
2023-02-22T08:08:38.217Z,8.40
2023-02-22T08:11:05.725Z,8.40
2023-02-22T08:13:33.018Z,8.40
2023-02-22T08:16:00.082Z,8.40
2023-02-22T08:18:27.058Z,8.30
2023-02-22T08:20:54.937Z,8.30
2023-02-22T08:23:25.641Z,8.40
2023-02-22T08:25:52.945Z,8.40
2023-02-22T08:28:23.391Z,8.50
2023-02-22T08:30:51.172Z,8.40
2023-02-22T08:33:19.725Z,8.40
2023-02-22T08:35:49.726Z,8.40
2023-02-22T08:38:29.519Z,8.40
2023-02-22T08:40:57.156Z,8.30
2023-02-22T08:43:24.254Z,8.30
2023-02-22T08:45:52.326Z,8.20
2023-02-22T08:48:20.341Z,8.30
2023-02-22T08:50:47.206Z,8.30
2023-02-22T08:53:16.358Z,8.30
2023-02-22T08:55:43.615Z,8.30
2023-02-22T08:58:10.905Z,8.30
2023-02-22T09:00:39.388Z,8.20
2023-02-22T09:03:13.580Z,8.20
2023-02-22T09:05:41.779Z,8.10
2023-02-22T09:08:08.794Z,8.10
2023-02-22T09:10:36.450Z,8.20
2023-02-22T09:13:04.147Z,8.30
2023-02-22T09:15:32.080Z,8.30
2023-02-22T09:18:00.567Z,8.30
2023-02-22T09:20:28.108Z,8.30
2023-02-22T09:22:55.502Z,8.30
2023-02-22T09:25:23.237Z,8.30
2023-02-22T09:27:52.060Z,8.40
2023-02-22T09:30:28.168Z,8.50
2023-02-22T09:32:58.365Z,8.60
2023-02-22T09:35:27.414Z,8.60
2023-02-22T09:37:56.827Z,8.50
2023-02-22T09:40:29.573Z,8.60
2023-02-22T09:43:35.810Z,8.50
2023-02-22T09:46:29.612Z,8.50
2023-02-22T09:49:32.299Z,8.60
2023-02-22T09:52:05.160Z,8.60
2023-02-22T09:54:40.981Z,8.60
2023-02-22T09:57:13.633Z,8.50
2023-02-22T09:59:53.524Z,8.50
2023-02-22T10:02:35.098Z,8.60
2023-02-22T10:05:29.398Z,8.70
2023-02-22T10:08:05.882Z,8.70
2023-02-22T10:10:39.353Z,8.80
2023-02-22T10:13:39.257Z,8.80
2023-02-22T10:16:06.210Z,8.80
2023-02-22T10:18:39.172Z,8.80
2023-02-22T10:21:19.516Z,8.90
2023-02-22T10:23:46.268Z,8.90
2023-02-22T10:26:20.467Z,8.90
2023-02-22T10:29:09.304Z,8.90
2023-02-22T10:31:44.098Z,8.80
2023-02-22T10:34:15.776Z,8.80
2023-02-22T10:36:48.984Z,8.80
2023-02-22T10:39:31.560Z,8.70
2023-02-22T10:42:06.112Z,8.70
2023-02-22T10:44:37.330Z,8.80
2023-02-22T10:47:08.269Z,8.90
2023-02-22T10:49:41.234Z,9.00
2023-02-22T10:52:22.482Z,9.10
2023-02-22T10:54:51.969Z,9.20
2023-02-22T10:57:23.336Z,9.10
2023-02-22T10:59:52.013Z,9.20
2023-02-22T11:02:23.595Z,9.10
2023-02-22T11:04:53.054Z,9.10
2023-02-22T11:07:30.446Z,9.10
2023-02-22T11:10:03.313Z,9.10
2023-02-22T11:12:38.734Z,9.10
2023-02-22T11:15:18.863Z,8.90
2023-02-22T11:17:47.469Z,8.90
2023-02-22T11:20:25.396Z,8.80
2023-02-22T11:22:54.891Z,8.80
2023-02-22T11:25:24.913Z,8.80
2023-02-22T11:27:52.946Z,8.80
2023-02-22T11:30:27.097Z,8.80
2023-02-22T11:32:58.696Z,9.00
2023-02-22T11:35:28.310Z,9.20
2023-02-22T11:38:17.651Z,9.30
2023-02-22T11:40:45.665Z,9.40
2023-02-22T11:43:20.388Z,9.40
2023-02-22T11:46:08.350Z,9.40
2023-02-22T11:48:39.530Z,9.20
2023-02-22T11:51:14.463Z,9.20
2023-02-22T11:54:25.444Z,9.30
2023-02-22T11:56:55.904Z,9.40
2023-02-22T11:59:51.542Z,9.40
2023-02-22T12:02:30.733Z,9.50
2023-02-22T12:05:09.601Z,9.40
2023-02-22T12:08:17.393Z,9.40
2023-02-22T12:11:18.409Z,9.30
2023-02-22T12:14:01.869Z,9.40
2023-02-22T12:17:03.448Z,9.60
2023-02-22T12:19:41.450Z,9.80
2023-02-22T12:22:26.687Z,9.80
2023-02-22T12:25:09.860Z,9.70
2023-02-22T12:27:51.867Z,9.70
2023-02-22T12:30:23.968Z,9.80
2023-02-22T12:33:06.585Z,9.20
2023-02-22T12:35:50.403Z,9.60
2023-02-22T12:38:40.302Z,9.50
2023-02-22T12:41:27.068Z,9.60
2023-02-22T12:43:58.872Z,9.60
2023-02-22T12:46:40.151Z,9.60
2023-02-22T12:50:05.530Z,9.80
2023-02-22T12:52:44.168Z,10.00
2023-02-22T12:55:45.794Z,10.30
2023-02-22T12:58:26.975Z,10.70
2023-02-22T13:01:17.831Z,10.70
2023-02-22T13:03:45.125Z,10.80
2023-02-22T13:06:28.120Z,10.80
2023-02-22T13:09:19.763Z,10.70
2023-02-22T13:11:55.441Z,10.50
2023-02-22T13:14:40.545Z,10.50
2023-02-22T13:17:41.429Z,10.50
2023-02-22T13:20:34.236Z,10.50
2023-02-22T13:23:15.067Z,10.60
2023-02-22T13:25:49.933Z,10.70
2023-02-22T13:28:24.159Z,10.80
2023-02-22T13:31:19.622Z,10.90
2023-02-22T13:34:16.772Z,11.10
2023-02-22T13:37:04.819Z,11.30
2023-02-22T13:39:54.681Z,11.50
2023-02-22T13:42:38.084Z,11.70
2023-02-22T13:45:35.711Z,11.90
2023-02-22T13:48:34.822Z,12.10
2023-02-22T13:51:13.765Z,12.30
2023-02-22T13:53:49.219Z,12.30
2023-02-22T13:56:19.059Z,12.40
2023-02-22T13:58:57.085Z,12.40
2023-02-22T14:01:46.254Z,12.50
2023-02-22T14:04:28.507Z,12.70
2023-02-22T14:07:25.968Z,12.90
2023-02-22T14:09:56.140Z,13.10
2023-02-22T14:12:34.873Z,13.20
2023-02-22T14:15:26.813Z,13.20
2023-02-22T14:18:01.981Z,13.10
2023-02-22T14:20:32.323Z,13.00
2023-02-22T14:23:30.130Z,13.00
2023-02-22T14:26:10.137Z,12.80
2023-02-22T14:28:43.019Z,12.70
2023-02-22T14:31:33.419Z,12.70
2023-02-22T14:34:40.225Z,12.50
2023-02-22T14:37:12.711Z,12.50
2023-02-22T14:40:12.865Z,12.40
2023-02-22T14:42:49.058Z,12.30
2023-02-22T14:45:30.100Z,12.30
2023-02-22T14:48:24.939Z,12.20
2023-02-22T14:50:53.807Z,11.90
2023-02-22T14:53:44.316Z,11.90
2023-02-22T14:56:36.320Z,12.00
2023-02-22T14:59:16.833Z,12.10
2023-02-22T15:02:01.756Z,12.20
2023-02-22T15:04:34.677Z,12.20
2023-02-22T15:07:15.989Z,12.10
2023-02-22T15:09:46.585Z,12.10
2023-02-22T15:12:20.556Z,12.00
2023-02-22T15:14:47.828Z,11.90
2023-02-22T15:17:20.833Z,11.80
2023-02-22T15:19:48.909Z,11.70
2023-02-22T15:22:25.115Z,11.50
2023-02-22T15:25:12.218Z,11.30
2023-02-22T15:27:47.804Z,11.20
2023-02-22T15:30:32.535Z,11.20
2023-02-22T15:33:12.194Z,11.10
2023-02-22T15:35:39.636Z,11.00
2023-02-22T15:38:10.620Z,10.90
2023-02-22T15:40:42.895Z,10.70
2023-02-22T15:43:18.887Z,10.60
2023-02-22T15:45:46.469Z,10.60
2023-02-22T15:48:15.844Z,10.50
2023-02-22T15:50:59.377Z,10.50
2023-02-22T15:53:30.730Z,10.60
2023-02-22T15:56:05.789Z,10.60
2023-02-22T15:58:32.852Z,10.60
2023-02-22T16:01:12.348Z,10.70
2023-02-22T16:03:46.349Z,10.70
2023-02-22T16:06:33.621Z,10.80
2023-02-22T16:09:10.526Z,10.70
2023-02-22T16:11:43.238Z,10.70
2023-02-22T16:14:30.416Z,10.70
2023-02-22T16:17:29.764Z,10.70
2023-02-22T16:20:01.682Z,10.60
2023-02-22T16:22:36.136Z,10.60
2023-02-22T16:25:18.423Z,10.50
2023-02-22T16:28:01.642Z,10.40
2023-02-22T16:30:32.850Z,10.30
2023-02-22T16:33:05.506Z,10.30
2023-02-22T16:35:35.418Z,10.30
2023-02-22T16:38:05.329Z,10.30
2023-02-22T16:40:39.855Z,10.20
2023-02-22T16:43:10.420Z,10.20
2023-02-22T16:45:37.589Z,10.20
2023-02-22T16:48:21.443Z,10.10
2023-02-22T16:50:51.371Z,10.10
2023-02-22T16:53:21.240Z,10.10
2023-02-22T16:55:48.666Z,10.10
2023-02-22T16:58:17.519Z,10.10
2023-02-22T17:00:44.826Z,10.00
2023-02-22T17:03:17.212Z,10.00
2023-02-22T17:05:44.638Z,10.00
2023-02-22T17:08:11.667Z,9.90
2023-02-22T17:10:38.751Z,9.90
2023-02-22T17:13:21.797Z,9.90
2023-02-22T17:15:51.461Z,9.80
2023-02-22T17:18:23.602Z,9.80
2023-02-22T17:20:52.203Z,9.80
2023-02-22T17:23:19.889Z,9.80
2023-02-22T17:25:50.939Z,9.80
2023-02-22T17:28:18.280Z,9.80
2023-02-22T17:30:48.813Z,9.80
2023-02-22T17:33:19.164Z,9.70
2023-02-22T17:35:47.060Z,9.80
2023-02-22T17:38:18.539Z,9.80
2023-02-22T17:40:55.001Z,9.80
2023-02-22T17:43:22.009Z,9.70
2023-02-22T17:45:49.539Z,9.70
2023-02-22T17:48:17.660Z,9.70
2023-02-22T17:50:46.513Z,9.70
2023-02-22T17:53:13.584Z,9.50
2023-02-22T17:55:42.336Z,9.40
2023-02-22T17:58:19.950Z,9.30
2023-02-22T18:00:50.029Z,9.30
2023-02-22T18:03:25.697Z,9.30
2023-02-22T18:05:56.319Z,9.30
2023-02-22T18:08:24.428Z,9.20
2023-02-22T18:11:02.744Z,9.20
2023-02-22T18:13:29.647Z,9.20
2023-02-22T18:16:00.170Z,9.10
2023-02-22T18:18:27.438Z,9.20
2023-02-22T18:20:59.491Z,9.10
2023-02-22T18:23:29.205Z,9.10
2023-02-22T18:26:09.676Z,9.10
2023-02-22T18:28:38.021Z,9.10
2023-02-22T18:31:16.311Z,9.10
2023-02-22T18:33:44.827Z,9.00
2023-02-22T18:36:12.608Z,9.00
2023-02-22T18:38:43.626Z,8.90
2023-02-22T18:41:16.239Z,9.00
2023-02-22T18:43:43.832Z,8.90
2023-02-22T18:46:19.680Z,8.90
2023-02-22T18:48:55.858Z,8.90
2023-02-22T18:51:23.675Z,8.90
2023-02-22T18:53:54.784Z,9.00
2023-02-22T18:56:22.213Z,9.00
2023-02-22T18:58:53.931Z,9.00
2023-02-22T19:01:22.617Z,9.00
2023-02-22T19:03:49.651Z,9.00
2023-02-22T19:06:18.422Z,9.00
2023-02-22T19:08:47.066Z,9.00
2023-02-22T19:11:20.021Z,9.00
2023-02-22T19:13:48.878Z,9.00
2023-02-22T19:16:20.166Z,9.00
2023-02-22T19:18:48.620Z,9.00
2023-02-22T19:21:16.397Z,9.00
2023-02-22T19:23:47.928Z,9.00
2023-02-22T19:26:20.791Z,8.90
2023-02-22T19:28:52.130Z,8.90
2023-02-22T19:31:20.951Z,8.90
2023-02-22T19:33:51.287Z,8.90
2023-02-22T19:36:20.103Z,8.90
2023-02-22T19:38:47.192Z,8.90
2023-02-22T19:41:18.444Z,8.90
2023-02-22T19:43:47.467Z,8.90
2023-02-22T19:46:17.767Z,8.80
2023-02-22T19:48:45.505Z,8.80
2023-02-22T19:51:15.199Z,8.80
2023-02-22T19:53:43.966Z,8.80
2023-02-22T19:56:27.044Z,8.80
2023-02-22T19:58:56.072Z,8.70
2023-02-22T20:01:26.617Z,8.70
2023-02-22T20:04:05.034Z,8.70
2023-02-22T20:06:34.973Z,8.70
2023-02-22T20:09:02.728Z,8.70
2023-02-22T20:11:30.689Z,8.60
2023-02-22T20:13:57.658Z,8.60
2023-02-22T20:16:24.610Z,8.60
2023-02-22T20:18:51.652Z,8.50
2023-02-22T20:21:20.087Z,8.50
2023-02-22T20:23:47.359Z,8.50
2023-02-22T20:26:22.579Z,8.40
2023-02-22T20:28:51.062Z,8.40
2023-02-22T20:31:19.613Z,8.40
2023-02-22T20:33:49.145Z,8.40
2023-02-22T20:36:18.393Z,8.30
2023-02-22T20:38:45.790Z,8.30
2023-02-22T20:41:16.443Z,8.30
2023-02-22T20:43:43.603Z,8.30
2023-02-22T20:46:10.559Z,8.20
2023-02-22T20:48:37.449Z,8.20
2023-02-22T20:51:09.061Z,8.20
2023-02-22T20:53:36.824Z,8.20
2023-02-22T20:56:04.531Z,8.10
2023-02-22T20:58:31.554Z,8.10
2023-02-22T21:01:05.120Z,8.10
2023-02-22T21:03:35.998Z,8.10
2023-02-22T21:06:06.329Z,8.10
2023-02-22T21:08:33.391Z,8.10
2023-02-22T21:11:00.591Z,8.10
2023-02-22T21:13:27.655Z,8.00
2023-02-22T21:15:54.623Z,8.00
2023-02-22T21:18:23.376Z,7.90
2023-02-22T21:20:51.925Z,8.00
2023-02-22T21:23:18.924Z,7.90
2023-02-22T21:25:53.244Z,7.90
2023-02-22T21:28:20.608Z,7.90
2023-02-22T21:30:47.758Z,7.90
2023-02-22T21:33:16.025Z,7.80
2023-02-22T21:35:50.396Z,7.80
2023-02-22T21:38:17.843Z,7.80
2023-02-22T21:40:47.935Z,7.80
2023-02-22T21:43:16.625Z,7.80
2023-02-22T21:45:43.698Z,7.80
2023-02-22T21:48:10.581Z,7.70
2023-02-22T21:50:38.288Z,7.70
2023-02-22T21:53:06.482Z,7.70
2023-02-22T21:55:33.912Z,7.60
2023-02-22T21:58:00.773Z,7.70
2023-02-22T22:00:31.715Z,7.60
2023-02-22T22:03:12.620Z,7.60
2023-02-22T22:05:40.247Z,7.60
2023-02-22T22:08:13.264Z,7.50
2023-02-22T22:10:40.131Z,7.60
2023-02-22T22:13:09.126Z,7.50
2023-02-22T22:15:37.347Z,7.50
2023-02-22T22:18:08.059Z,7.50
2023-02-22T22:20:38.328Z,7.50
2023-02-22T22:23:06.908Z,7.40
2023-02-22T22:25:38.082Z,7.40
2023-02-22T22:28:11.512Z,7.40
2023-02-22T22:30:38.587Z,7.30
2023-02-22T22:33:06.222Z,7.30
2023-02-22T22:35:33.575Z,7.30
2023-02-22T22:38:01.119Z,7.30
2023-02-22T22:40:28.448Z,7.30
2023-02-22T22:42:55.507Z,7.20
2023-02-22T22:45:22.916Z,7.20
2023-02-22T22:47:49.816Z,7.20
2023-02-22T22:50:27.589Z,7.20
2023-02-22T22:52:57.130Z,7.20
2023-02-22T22:55:26.808Z,7.20
2023-02-22T22:57:53.646Z,7.20
2023-02-22T23:00:30.294Z,7.20
2023-02-22T23:02:57.385Z,7.20
2023-02-22T23:05:29.334Z,7.20
2023-02-22T23:07:57.452Z,7.30
2023-02-22T23:10:27.478Z,7.30
2023-02-22T23:12:56.528Z,7.30
2023-02-22T23:15:25.142Z,7.30
2023-02-22T23:17:56.263Z,7.20
2023-02-22T23:20:26.268Z,7.30
2023-02-22T23:22:55.164Z,7.30
2023-02-22T23:25:22.382Z,7.30
2023-02-22T23:27:49.633Z,7.20
2023-02-22T23:30:18.652Z,7.30
2023-02-22T23:32:46.678Z,7.30
2023-02-22T23:35:15.338Z,7.30
2023-02-22T23:37:42.855Z,7.30
2023-02-22T23:40:17.421Z,7.30
2023-02-22T23:42:57.611Z,7.30
2023-02-22T23:45:24.867Z,7.30
2023-02-22T23:47:57.247Z,7.30
2023-02-22T23:50:26.598Z,7.30
2023-02-22T23:52:56.983Z,7.30
2023-02-22T23:55:26.303Z,7.30
2023-02-22T23:57:59.239Z,7.40
